createdAt,value
2023-03-14T00:00:16.993Z,83.11
2023-03-14T00:02:44.407Z,83.54
2023-03-14T00:05:12.190Z,83.41
2023-03-14T00:07:40.644Z,83.62
2023-03-14T00:10:11.153Z,84.20
2023-03-14T00:12:38.289Z,84.63
2023-03-14T00:15:07.977Z,85.08
2023-03-14T00:17:36.369Z,86.01
2023-03-14T00:20:09.217Z,86.42
2023-03-14T00:22:37.120Z,85.32
2023-03-14T00:25:05.521Z,85.71
2023-03-14T00:27:33.110Z,86.93
2023-03-14T00:30:00.706Z,87.11
2023-03-14T00:32:27.854Z,86.57
2023-03-14T00:34:54.997Z,85.37
2023-03-14T00:37:22.375Z,85.64
2023-03-14T00:39:52.100Z,85.33
2023-03-14T00:42:19.687Z,85.67
2023-03-14T00:44:47.470Z,86.00
2023-03-14T00:47:14.518Z,85.33
2023-03-14T00:49:44.433Z,85.19
2023-03-14T00:52:13.556Z,84.91
2023-03-14T00:54:40.975Z,84.76
2023-03-14T00:57:08.080Z,85.25
2023-03-14T00:59:35.464Z,86.39
2023-03-14T01:02:02.565Z,86.27
2023-03-14T01:04:31.368Z,86.95
2023-03-14T01:06:58.792Z,86.57
2023-03-14T01:09:26.150Z,87.02
2023-03-14T01:11:53.495Z,87.11
2023-03-14T01:14:20.907Z,87.39
2023-03-14T01:16:48.034Z,87.33
2023-03-14T01:19:15.638Z,87.37
2023-03-14T01:21:43.063Z,88.10
2023-03-14T01:24:12.364Z,88.63
2023-03-14T01:26:39.534Z,88.22
2023-03-14T01:29:07.354Z,88.71
2023-03-14T01:31:34.801Z,89.02
2023-03-14T01:34:02.366Z,89.30
2023-03-14T01:36:31.391Z,90.08
2023-03-14T01:38:59.981Z,90.28
2023-03-14T01:41:27.648Z,89.94
2023-03-14T01:43:55.351Z,90.15
2023-03-14T01:46:44.805Z,90.41
2023-03-14T01:49:28.171Z,91.99
2023-03-14T01:51:55.486Z,91.58
2023-03-14T01:54:31.406Z,91.60
2023-03-14T01:57:23.610Z,90.97
2023-03-14T01:59:58.441Z,91.61
2023-03-14T02:02:27.655Z,92.26
2023-03-14T02:04:56.252Z,92.74
2023-03-14T02:07:28.736Z,92.62
2023-03-14T02:09:57.506Z,92.86
2023-03-14T02:12:25.421Z,92.93
2023-03-14T02:14:52.811Z,93.55
2023-03-14T02:17:21.045Z,93.83
2023-03-14T02:20:10.528Z,93.82
2023-03-14T02:22:39.688Z,94.27
2023-03-14T02:25:30.066Z,94.88
2023-03-14T02:27:57.588Z,94.82
2023-03-14T02:30:27.754Z,96.54
2023-03-14T02:33:07.468Z,97.28
2023-03-14T02:35:53.675Z,97.04
2023-03-14T02:38:25.296Z,96.88
2023-03-14T02:40:53.023Z,97.20
2023-03-14T02:43:20.325Z,97.59
2023-03-14T02:45:50.021Z,96.73
2023-03-14T02:48:22.446Z,97.43
2023-03-14T02:50:52.347Z,97.61
2023-03-14T02:53:23.139Z,97.81
2023-03-14T02:55:50.761Z,97.61
2023-03-14T02:58:19.154Z,97.63
2023-03-14T03:00:48.057Z,97.62
2023-03-14T03:03:15.697Z,96.54
2023-03-14T03:05:45.818Z,96.12
2023-03-14T03:08:13.314Z,96.87
2023-03-14T03:10:40.586Z,97.91
2023-03-14T03:13:07.933Z,96.98
2023-03-14T03:15:35.466Z,96.93
2023-03-14T03:18:03.158Z,96.96
2023-03-14T03:20:30.554Z,96.99
2023-03-14T03:22:59.708Z,96.44
2023-03-14T03:25:27.681Z,97.85
2023-03-14T03:27:55.204Z,97.53
2023-03-14T03:30:23.029Z,98.31
2023-03-14T03:32:50.317Z,97.22
2023-03-14T03:35:17.566Z,95.67
2023-03-14T03:37:45.365Z,95.56
2023-03-14T03:40:12.587Z,94.86
2023-03-14T03:42:39.699Z,95.03
2023-03-14T03:45:08.199Z,94.83
2023-03-14T03:47:35.763Z,94.62
2023-03-14T03:50:03.690Z,94.65
2023-03-14T03:52:32.678Z,94.40
2023-03-14T03:54:59.944Z,94.88
2023-03-14T03:57:28.847Z,96.05
2023-03-14T03:59:57.028Z,96.74
2023-03-14T04:02:24.144Z,97.06
2023-03-14T04:04:52.055Z,96.92
2023-03-14T04:07:20.820Z,97.45
2023-03-14T04:09:48.220Z,97.15
2023-03-14T04:12:18.421Z,96.77
2023-03-14T04:14:47.909Z,96.13
2023-03-14T04:17:15.718Z,96.57
2023-03-14T04:19:43.215Z,96.83
2023-03-14T04:22:10.977Z,97.52
2023-03-14T04:24:38.640Z,98.89
2023-03-14T04:27:06.060Z,100.00
2023-03-14T04:29:33.427Z,99.28
2023-03-14T04:32:01.609Z,99.19
2023-03-14T04:34:29.144Z,99.54
2023-03-14T04:36:56.266Z,100.00
2023-03-14T04:39:24.709Z,100.00
2023-03-14T04:41:53.278Z,100.00
2023-03-14T04:44:20.760Z,100.00
2023-03-14T04:46:51.325Z,99.82
2023-03-14T04:49:19.053Z,99.45
2023-03-14T04:51:46.238Z,99.37
2023-03-14T04:54:13.658Z,98.94
2023-03-14T04:56:41.250Z,99.37
2023-03-14T04:59:09.319Z,100.00
2023-03-14T05:01:37.475Z,99.84
2023-03-14T05:04:04.968Z,99.69
2023-03-14T05:06:32.770Z,99.48
2023-03-14T05:09:00.895Z,99.75
2023-03-14T05:11:31.603Z,99.63
2023-03-14T05:13:59.083Z,99.31
2023-03-14T05:16:26.450Z,99.35
2023-03-14T05:18:54.158Z,98.48
2023-03-14T05:21:23.784Z,98.40
2023-03-14T05:23:51.390Z,97.72
2023-03-14T05:26:19.736Z,96.63
2023-03-14T05:28:47.523Z,96.22
2023-03-14T05:31:14.712Z,96.47
2023-03-14T05:33:42.460Z,96.23
2023-03-14T05:36:10.038Z,96.37
2023-03-14T05:38:38.294Z,96.37
2023-03-14T05:41:06.232Z,95.67
2023-03-14T05:43:34.111Z,94.01
2023-03-14T05:46:01.815Z,92.22
2023-03-14T05:48:29.427Z,91.16
2023-03-14T05:50:57.694Z,89.47
2023-03-14T05:53:25.216Z,89.58
2023-03-14T05:55:55.994Z,89.03
2023-03-14T05:58:24.830Z,88.06
2023-03-14T06:00:52.501Z,86.95
2023-03-14T06:03:20.487Z,86.73
2023-03-14T06:05:51.083Z,85.51
2023-03-14T06:08:18.684Z,84.13
2023-03-14T06:10:46.804Z,83.45
2023-03-14T06:13:14.355Z,81.68
2023-03-14T06:15:43.236Z,81.58
2023-03-14T06:18:11.541Z,80.76
2023-03-14T06:20:43.320Z,79.04
2023-03-14T06:23:11.102Z,79.85
2023-03-14T06:25:38.384Z,80.30
2023-03-14T06:28:05.536Z,80.79
2023-03-14T06:30:33.347Z,80.35
2023-03-14T06:33:00.605Z,80.25
2023-03-14T06:35:27.902Z,80.89
2023-03-14T06:37:55.419Z,80.18
2023-03-14T06:40:23.046Z,79.89
2023-03-14T06:42:50.939Z,78.39
2023-03-14T06:45:18.851Z,78.31
2023-03-14T06:47:46.078Z,77.47
2023-03-14T06:50:13.577Z,77.06
2023-03-14T06:52:47.054Z,76.73
2023-03-14T06:55:17.699Z,76.31
2023-03-14T06:57:45.707Z,75.55
2023-03-14T07:00:14.367Z,76.20
2023-03-14T07:02:43.248Z,76.01
2023-03-14T07:05:13.030Z,74.83
2023-03-14T07:07:40.468Z,74.20
2023-03-14T07:10:09.842Z,74.45
2023-03-14T07:12:37.429Z,73.89
2023-03-14T07:15:17.710Z,73.95
2023-03-14T07:17:49.157Z,71.03
2023-03-14T07:20:18.322Z,70.01
2023-03-14T07:22:49.347Z,69.62
2023-03-14T07:25:18.133Z,70.01
2023-03-14T07:27:46.643Z,69.66
2023-03-14T07:30:14.012Z,68.75
2023-03-14T07:32:41.456Z,69.36
2023-03-14T07:35:09.841Z,67.78
2023-03-14T07:37:37.214Z,66.92
2023-03-14T07:40:08.091Z,66.58
2023-03-14T07:42:35.914Z,65.19
2023-03-14T07:45:12.207Z,65.53
2023-03-14T07:47:39.751Z,64.49
2023-03-14T07:50:07.237Z,65.17
2023-03-14T07:52:34.362Z,63.91
2023-03-14T07:55:01.759Z,62.93
2023-03-14T07:57:28.896Z,61.65
2023-03-14T07:59:56.073Z,60.99
2023-03-14T08:02:25.119Z,61.95
2023-03-14T08:04:52.685Z,60.41
2023-03-14T08:07:19.815Z,63.13
2023-03-14T08:09:46.926Z,60.22
2023-03-14T08:12:14.460Z,59.33
2023-03-14T08:14:41.519Z,60.27
2023-03-14T08:17:09.239Z,61.40
2023-03-14T08:19:36.644Z,60.89
2023-03-14T08:22:04.249Z,59.33
2023-03-14T08:24:31.933Z,61.33
2023-03-14T08:26:59.418Z,59.78
2023-03-14T08:29:27.026Z,56.99
2023-03-14T08:31:55.922Z,56.65
2023-03-14T08:34:23.476Z,55.26
2023-03-14T08:36:51.336Z,56.07
2023-03-14T08:39:18.486Z,55.22
2023-03-14T08:41:45.996Z,54.12
2023-03-14T08:44:13.360Z,52.34
2023-03-14T08:46:40.580Z,52.22
2023-03-14T08:49:07.971Z,52.63
2023-03-14T08:51:35.126Z,52.42
2023-03-14T08:54:02.211Z,52.41
2023-03-14T08:56:29.609Z,53.14
2023-03-14T08:58:56.750Z,52.16
2023-03-14T09:01:26.217Z,51.67
2023-03-14T09:03:53.826Z,52.09
2023-03-14T09:06:20.958Z,52.54
2023-03-14T09:08:48.052Z,51.99
2023-03-14T09:11:15.662Z,52.28
2023-03-14T09:13:42.767Z,52.27
2023-03-14T09:16:10.304Z,52.90
2023-03-14T09:18:38.001Z,52.07
2023-03-14T09:21:05.279Z,52.29
2023-03-14T09:23:32.583Z,51.08
2023-03-14T09:26:00.785Z,51.83
2023-03-14T09:28:28.196Z,51.22
2023-03-14T09:30:55.745Z,50.78
2023-03-14T09:33:23.442Z,51.48
2023-03-14T09:35:51.017Z,50.88
2023-03-14T09:38:18.183Z,49.17
2023-03-14T09:40:45.560Z,46.41
2023-03-14T09:43:15.407Z,46.86
2023-03-14T09:45:43.953Z,46.84
2023-03-14T09:48:21.332Z,45.64
2023-03-14T09:50:59.429Z,45.57
2023-03-14T09:53:38.917Z,45.65
2023-03-14T09:56:12.488Z,45.19
2023-03-14T09:58:42.257Z,44.13
2023-03-14T10:01:12.525Z,43.31
2023-03-14T10:03:40.042Z,45.08
2023-03-14T10:06:16.372Z,42.41
2023-03-14T10:08:45.257Z,42.15
2023-03-14T10:11:16.246Z,41.40
2023-03-14T10:13:51.051Z,41.44
2023-03-14T10:16:18.182Z,40.44
2023-03-14T10:18:47.345Z,40.21
2023-03-14T10:21:30.936Z,39.75
2023-03-14T10:24:23.757Z,40.06
2023-03-14T10:26:54.583Z,38.76
2023-03-14T10:29:22.748Z,40.04
2023-03-14T10:32:02.043Z,39.50
2023-03-14T10:34:37.985Z,39.42
2023-03-14T10:37:26.625Z,39.06
2023-03-14T10:39:56.727Z,39.76
2023-03-14T10:42:35.610Z,40.73
2023-03-14T10:45:06.652Z,40.35
2023-03-14T10:47:33.680Z,41.12
2023-03-14T10:50:31.279Z,39.69
2023-03-14T10:53:06.367Z,39.38
2023-03-14T10:55:41.802Z,38.25
2023-03-14T10:58:47.336Z,38.94
2023-03-14T11:01:26.455Z,37.85
2023-03-14T11:04:02.687Z,39.22
2023-03-14T11:06:50.193Z,38.61
2023-03-14T11:09:35.998Z,39.48
2023-03-14T11:12:13.131Z,38.66
2023-03-14T11:14:45.120Z,38.83
2023-03-14T11:17:20.392Z,38.93
2023-03-14T11:19:53.483Z,39.29
2023-03-14T11:22:45.974Z,38.93
2023-03-14T11:25:20.007Z,39.86
2023-03-14T11:28:09.289Z,38.60
2023-03-14T11:30:43.643Z,39.31
2023-03-14T11:33:22.853Z,39.27
2023-03-14T11:36:10.543Z,39.61
2023-03-14T11:38:47.582Z,40.20
2023-03-14T11:41:20.949Z,40.70
2023-03-14T11:43:49.563Z,41.32
2023-03-14T11:46:22.837Z,40.94
2023-03-14T11:49:03.848Z,41.70
2023-03-14T11:51:36.394Z,40.66
2023-03-14T11:54:19.892Z,40.66
2023-03-14T11:56:55.721Z,40.63
2023-03-14T11:59:27.941Z,41.04
2023-03-14T12:02:00.131Z,41.01
2023-03-14T12:04:40.787Z,40.63
2023-03-14T12:07:24.890Z,40.46
2023-03-14T12:09:53.382Z,40.85
2023-03-14T12:12:23.614Z,39.33
2023-03-14T12:14:59.626Z,40.17
2023-03-14T12:17:34.460Z,40.05
2023-03-14T12:20:07.098Z,39.32
2023-03-14T12:22:38.920Z,38.42
2023-03-14T12:25:19.707Z,38.13
2023-03-14T12:28:05.313Z,38.73
2023-03-14T12:30:39.847Z,38.82
2023-03-14T12:33:10.287Z,39.04
2023-03-14T12:35:40.340Z,38.81
2023-03-14T12:38:31.305Z,39.05
2023-03-14T12:41:30.998Z,38.67
2023-03-14T12:44:47.562Z,39.13
2023-03-14T12:47:17.623Z,40.06
2023-03-14T12:49:50.249Z,40.41
2023-03-14T12:52:22.742Z,41.50
2023-03-14T12:55:20.604Z,42.06
2023-03-14T12:58:13.824Z,42.12
2023-03-14T13:00:42.181Z,42.66
2023-03-14T13:03:26.554Z,42.95
2023-03-14T13:05:59.138Z,42.70
2023-03-14T13:08:57.500Z,42.73
2023-03-14T13:11:25.079Z,42.98
2023-03-14T13:13:59.390Z,43.43
2023-03-14T13:16:26.732Z,43.73
2023-03-14T13:19:05.481Z,43.55
2023-03-14T13:21:36.898Z,44.24
2023-03-14T13:24:11.663Z,44.42
2023-03-14T13:26:41.599Z,43.68
2023-03-14T13:29:21.197Z,43.73
2023-03-14T13:31:58.567Z,43.95
2023-03-14T13:34:27.825Z,43.94
2023-03-14T13:36:55.380Z,43.99
2023-03-14T13:39:29.912Z,44.14
2023-03-14T13:42:01.422Z,43.62
2023-03-14T13:44:32.844Z,43.68
2023-03-14T13:47:02.248Z,43.19
2023-03-14T13:49:32.567Z,43.17
2023-03-14T13:51:59.939Z,42.67
2023-03-14T13:54:28.586Z,42.40
2023-03-14T13:57:03.317Z,42.62
2023-03-14T13:59:32.875Z,41.97
2023-03-14T14:02:03.820Z,42.03
2023-03-14T14:04:34.114Z,41.88
2023-03-14T14:07:01.646Z,41.84
2023-03-14T14:09:30.920Z,41.91
2023-03-14T14:12:17.744Z,41.98
2023-03-14T14:14:49.257Z,42.06
2023-03-14T14:17:20.252Z,42.24
2023-03-14T14:19:48.255Z,42.52
2023-03-14T14:22:15.461Z,44.07
2023-03-14T14:24:42.989Z,43.11
2023-03-14T14:27:15.724Z,42.91
2023-03-14T14:29:43.495Z,41.06
2023-03-14T14:32:14.455Z,41.30
2023-03-14T14:34:50.715Z,41.69
2023-03-14T14:37:29.243Z,41.73
2023-03-14T14:39:59.325Z,40.92
2023-03-14T14:42:31.867Z,41.51
2023-03-14T14:45:00.090Z,41.45
2023-03-14T14:47:29.593Z,41.61
2023-03-14T14:50:01.102Z,42.41
2023-03-14T14:52:50.170Z,42.86
2023-03-14T14:55:21.224Z,43.51
2023-03-14T14:57:54.121Z,43.52
2023-03-14T15:00:27.698Z,44.20
2023-03-14T15:03:01.933Z,45.39
2023-03-14T15:05:31.112Z,46.03
2023-03-14T15:07:58.904Z,47.31
2023-03-14T15:10:27.304Z,47.44
2023-03-14T15:12:54.505Z,48.07
2023-03-14T15:15:22.001Z,48.18
2023-03-14T15:17:49.258Z,49.26
2023-03-14T15:20:17.603Z,50.37
2023-03-14T15:22:45.065Z,50.23
2023-03-14T15:25:31.701Z,50.71
2023-03-14T15:27:59.972Z,51.54
2023-03-14T15:30:27.100Z,51.47
2023-03-14T15:32:54.223Z,51.44
2023-03-14T15:35:21.925Z,50.56
2023-03-14T15:37:49.478Z,51.01
2023-03-14T15:40:16.628Z,51.69
2023-03-14T15:42:44.219Z,53.89
2023-03-14T15:45:11.577Z,62.24
2023-03-14T15:47:38.990Z,67.31
2023-03-14T15:50:10.864Z,70.22
2023-03-14T15:52:38.230Z,72.75
2023-03-14T15:55:05.778Z,76.06
2023-03-14T15:57:33.190Z,78.58
2023-03-14T16:00:00.584Z,81.39
2023-03-14T16:02:27.757Z,83.62
2023-03-14T16:04:55.167Z,85.79
2023-03-14T16:07:22.672Z,88.79
2023-03-14T16:09:49.865Z,92.67
2023-03-14T16:12:17.326Z,95.30
2023-03-14T16:14:44.436Z,98.19
2023-03-14T16:17:11.859Z,100.00
2023-03-14T16:19:39.237Z,100.00
2023-03-14T16:22:06.476Z,100.00
2023-03-14T16:24:33.625Z,100.00
2023-03-14T16:27:01.095Z,100.00
2023-03-14T16:29:28.197Z,100.00
2023-03-14T16:31:56.053Z,100.00
2023-03-14T16:34:23.564Z,100.00
2023-03-14T16:36:53.374Z,100.00
2023-03-14T16:39:20.699Z,100.00
2023-03-14T16:41:48.173Z,100.00
2023-03-14T16:44:15.263Z,100.00
2023-03-14T16:46:42.426Z,100.00
2023-03-14T16:49:10.853Z,100.00
2023-03-14T16:51:37.940Z,100.00
2023-03-14T16:54:05.069Z,100.00
2023-03-14T16:56:32.601Z,100.00
2023-03-14T16:58:59.712Z,100.00
2023-03-14T17:01:26.931Z,100.00
2023-03-14T17:03:54.494Z,100.00
2023-03-14T17:06:24.723Z,100.00
2023-03-14T17:08:53.168Z,100.00
2023-03-14T17:11:20.842Z,100.00
2023-03-14T17:13:47.966Z,100.00
2023-03-14T17:16:15.314Z,100.00
2023-03-14T17:18:42.903Z,100.00
2023-03-14T17:21:10.043Z,100.00
2023-03-14T17:23:38.647Z,100.00
2023-03-14T17:26:06.052Z,100.00
2023-03-14T17:28:34.274Z,100.00
2023-03-14T17:31:09.495Z,100.00
2023-03-14T17:33:37.068Z,100.00
2023-03-14T17:36:04.710Z,100.00
2023-03-14T17:38:32.611Z,100.00
2023-03-14T17:40:59.982Z,100.00
2023-03-14T17:43:27.111Z,100.00
2023-03-14T17:46:01.681Z,100.00
2023-03-14T17:48:29.161Z,100.00
2023-03-14T17:50:58.913Z,100.00
2023-03-14T17:53:28.157Z,100.00
2023-03-14T17:55:55.617Z,100.00
2023-03-14T17:58:22.881Z,100.00
2023-03-14T18:00:50.065Z,100.00
2023-03-14T18:03:19.517Z,100.00
2023-03-14T18:05:46.748Z,100.00
2023-03-14T18:08:15.573Z,100.00
2023-03-14T18:10:43.071Z,100.00
2023-03-14T18:13:10.266Z,100.00
2023-03-14T18:15:37.355Z,100.00
2023-03-14T18:18:04.793Z,100.00
2023-03-14T18:20:31.871Z,100.00
2023-03-14T18:23:01.935Z,100.00
2023-03-14T18:25:29.607Z,100.00
2023-03-14T18:27:56.736Z,100.00
2023-03-14T18:30:23.869Z,100.00
2023-03-14T18:32:51.390Z,100.00
2023-03-14T18:35:18.540Z,100.00
2023-03-14T18:37:46.224Z,100.00
2023-03-14T18:40:16.921Z,100.00
2023-03-14T18:42:44.221Z,100.00
2023-03-14T18:45:12.112Z,100.00
2023-03-14T18:47:39.639Z,100.00
2023-03-14T18:50:09.567Z,100.00
2023-03-14T18:52:37.061Z,100.00
2023-03-14T18:55:04.933Z,100.00
2023-03-14T18:57:32.384Z,100.00
2023-03-14T18:59:59.513Z,100.00
2023-03-14T19:02:27.323Z,100.00
2023-03-14T19:04:54.451Z,100.00
2023-03-14T19:07:23.590Z,100.00
2023-03-14T19:09:51.030Z,100.00
2023-03-14T19:12:18.939Z,100.00
2023-03-14T19:14:46.678Z,100.00
2023-03-14T19:17:14.450Z,100.00
2023-03-14T19:19:41.530Z,100.00
2023-03-14T19:22:08.618Z,100.00
2023-03-14T19:24:36.198Z,100.00
2023-03-14T19:27:03.392Z,100.00
2023-03-14T19:29:31.906Z,100.00
2023-03-14T19:31:59.384Z,100.00
2023-03-14T19:34:26.662Z,100.00
2023-03-14T19:36:53.969Z,100.00
2023-03-14T19:39:21.311Z,100.00
2023-03-14T19:41:48.324Z,100.00
2023-03-14T19:44:15.365Z,100.00
2023-03-14T19:46:42.682Z,100.00
2023-03-14T19:49:09.772Z,100.00
2023-03-14T19:51:36.820Z,100.00
2023-03-14T19:54:05.033Z,100.00
2023-03-14T19:56:33.085Z,100.00
2023-03-14T19:59:03.083Z,100.00
2023-03-14T20:01:31.712Z,100.00
2023-03-14T20:03:59.439Z,100.00
2023-03-14T20:06:26.486Z,100.00
2023-03-14T20:08:53.492Z,100.00
2023-03-14T20:11:20.855Z,100.00
2023-03-14T20:13:47.987Z,100.00
2023-03-14T20:16:15.057Z,100.00
2023-03-14T20:18:42.698Z,100.00
2023-03-14T20:21:12.695Z,100.00
2023-03-14T20:23:39.791Z,100.00
2023-03-14T20:26:07.170Z,100.00
2023-03-14T20:28:34.201Z,100.00
2023-03-14T20:31:02.317Z,100.00
2023-03-14T20:33:29.903Z,100.00
2023-03-14T20:35:59.055Z,100.00
2023-03-14T20:38:27.954Z,100.00
2023-03-14T20:40:59.353Z,100.00
2023-03-14T20:43:27.153Z,100.00
2023-03-14T20:45:58.918Z,100.00
2023-03-14T20:48:27.572Z,100.00
2023-03-14T20:50:54.603Z,100.00
2023-03-14T20:53:22.284Z,100.00
2023-03-14T20:55:50.363Z,100.00
2023-03-14T20:58:17.561Z,100.00
2023-03-14T21:00:49.237Z,100.00
2023-03-14T21:03:17.922Z,100.00
2023-03-14T21:05:46.811Z,100.00
2023-03-14T21:08:18.757Z,100.00
2023-03-14T21:10:50.270Z,100.00
2023-03-14T21:13:17.610Z,100.00
2023-03-14T21:15:44.607Z,100.00
2023-03-14T21:18:13.006Z,100.00
2023-03-14T21:20:41.168Z,100.00
2023-03-14T21:23:08.803Z,100.00
2023-03-14T21:25:36.137Z,100.00
2023-03-14T21:28:04.253Z,100.00
2023-03-14T21:30:35.057Z,100.00
2023-03-14T21:33:02.588Z,100.00
2023-03-14T21:35:30.425Z,100.00
2023-03-14T21:37:57.589Z,100.00
2023-03-14T21:40:25.129Z,100.00
2023-03-14T21:42:55.523Z,100.00
2023-03-14T21:45:26.875Z,100.00
2023-03-14T21:47:55.092Z,100.00
2023-03-14T21:50:23.628Z,100.00
2023-03-14T21:52:51.930Z,100.00
2023-03-14T21:55:19.258Z,100.00
2023-03-14T21:57:47.995Z,100.00
2023-03-14T22:00:17.692Z,100.00
2023-03-14T22:02:53.790Z,100.00
2023-03-14T22:05:30.541Z,100.00
2023-03-14T22:07:57.980Z,100.00
2023-03-14T22:10:25.300Z,100.00
2023-03-14T22:12:52.421Z,100.00
2023-03-14T22:15:19.870Z,100.00
2023-03-14T22:17:47.338Z,100.00
2023-03-14T22:20:14.489Z,100.00
2023-03-14T22:22:42.040Z,100.00
2023-03-14T22:25:09.461Z,100.00
2023-03-14T22:27:36.649Z,100.00
2023-03-14T22:30:04.374Z,100.00
2023-03-14T22:32:31.944Z,100.00
2023-03-14T22:34:59.292Z,100.00
2023-03-14T22:37:26.782Z,100.00
2023-03-14T22:39:53.774Z,100.00
2023-03-14T22:42:20.818Z,100.00
2023-03-14T22:44:48.080Z,100.00
2023-03-14T22:47:15.090Z,100.00
2023-03-14T22:49:42.121Z,100.00
2023-03-14T22:52:11.652Z,100.00
2023-03-14T22:54:39.005Z,100.00
2023-03-14T22:57:06.091Z,100.00
2023-03-14T22:59:33.366Z,100.00
2023-03-14T23:02:00.638Z,100.00
2023-03-14T23:04:29.085Z,100.00
2023-03-14T23:06:56.456Z,100.00
2023-03-14T23:09:23.471Z,100.00
2023-03-14T23:11:50.803Z,100.00
2023-03-14T23:14:18.340Z,100.00
2023-03-14T23:16:47.637Z,100.00
2023-03-14T23:19:14.958Z,100.00
2023-03-14T23:21:42.798Z,100.00
2023-03-14T23:24:09.811Z,100.00
2023-03-14T23:26:37.005Z,100.00
2023-03-14T23:29:07.193Z,100.00
2023-03-14T23:31:34.450Z,100.00
2023-03-14T23:34:01.985Z,100.00
2023-03-14T23:36:29.844Z,100.00
2023-03-14T23:38:57.074Z,100.00
2023-03-14T23:41:24.126Z,100.00
2023-03-14T23:43:51.543Z,100.00
2023-03-14T23:46:18.687Z,100.00
2023-03-14T23:48:48.398Z,100.00
2023-03-14T23:51:16.613Z,100.00
2023-03-14T23:53:44.485Z,100.00
2023-03-14T23:56:13.548Z,100.00
2023-03-14T23:58:41.413Z,100.00
